createdAt,value
2019-02-04T00:01:20.629Z,0.40
2019-02-04T00:02:25.709Z,0.40
2019-02-04T00:05:46.444Z,0.40
2019-02-04T00:06:51.812Z,0.50
2019-02-04T00:07:56.672Z,0.50
2019-02-04T00:09:01.970Z,0.50
2019-02-04T00:10:10.751Z,0.50
2019-02-04T00:11:15.743Z,0.50
2019-02-04T00:12:23.876Z,0.50
2019-02-04T00:13:28.718Z,0.50
2019-02-04T00:14:33.753Z,0.50
2019-02-04T00:16:08.524Z,0.50
2019-02-04T00:17:13.864Z,0.40
2019-02-04T00:18:18.888Z,0.50
2019-02-04T00:19:44.432Z,0.40
2019-02-04T00:29:16.111Z,0.40
2019-02-04T00:30:21.750Z,0.40
2019-02-04T00:31:27.151Z,0.40
2019-02-04T00:32:32.653Z,0.50
2019-02-04T00:33:37.531Z,0.40
2019-02-04T00:34:42.268Z,0.40
2019-02-04T00:35:47.052Z,0.40
2019-02-04T00:36:54.735Z,0.40
2019-02-04T00:41:32.815Z,0.50
2019-02-04T00:42:55.625Z,0.40
2019-02-04T00:44:00.811Z,0.50
2019-02-04T00:45:06.802Z,0.50
2019-02-04T00:46:11.709Z,0.50
2019-02-04T00:47:16.687Z,0.50
2019-02-04T00:48:22.877Z,0.40
2019-02-04T00:49:28.469Z,0.40
2019-02-04T00:50:36.430Z,0.40
2019-02-04T00:51:41.664Z,0.40
2019-02-04T00:52:46.626Z,0.40
2019-02-04T00:53:54.522Z,0.40
2019-02-04T00:59:39.311Z,0.40
2019-02-04T01:00:47.502Z,0.40
2019-02-04T01:01:52.561Z,0.50
2019-02-04T01:03:04.143Z,0.40
2019-02-04T01:04:09.053Z,0.40
2019-02-04T01:05:32.072Z,0.40
2019-02-04T01:06:37.660Z,0.50
2019-02-04T01:07:43.115Z,0.50
2019-02-04T01:08:49.207Z,0.40
2019-02-04T01:09:56.436Z,0.40
2019-02-04T01:11:01.521Z,0.40
2019-02-04T01:14:11.363Z,0.40
2019-02-04T01:17:39.216Z,0.40
2019-02-04T01:18:44.063Z,0.50
2019-02-04T01:19:49.359Z,0.40
2019-02-04T01:20:54.620Z,0.40
2019-02-04T01:22:00.031Z,0.40
2019-02-04T01:23:05.250Z,0.40
2019-02-04T01:25:40.467Z,0.40
2019-02-04T01:28:24.805Z,0.40
2019-02-04T01:28:54.465Z,0.40
2019-02-04T01:29:29.965Z,0.30
2019-02-04T01:30:34.825Z,0.30
2019-02-04T01:33:37.675Z,0.30
2019-02-04T01:34:42.700Z,0.30
2019-02-04T01:35:47.483Z,0.30
2019-02-04T01:37:01.225Z,0.30
2019-02-04T01:38:53.603Z,0.40
2019-02-04T01:39:58.415Z,0.40
2019-02-04T01:43:50.301Z,0.30
2019-02-04T01:44:55.445Z,0.30
2019-02-04T01:46:00.819Z,0.30
2019-02-04T01:49:34.187Z,0.30
2019-02-04T01:50:39.281Z,0.30
2019-02-04T01:59:21.899Z,0.30
2019-02-04T02:00:31.752Z,0.30
2019-02-04T02:06:39.085Z,0.30
2019-02-04T02:07:44.236Z,0.30
2019-02-04T02:12:59.799Z,0.30
2019-02-04T02:14:08.151Z,0.30
2019-02-04T02:19:34.412Z,0.30
2019-02-04T02:21:33.888Z,0.30
2019-02-04T02:29:19.556Z,0.30
2019-02-04T02:30:30.405Z,0.30
2019-02-04T02:31:35.404Z,0.30
2019-02-04T02:32:40.723Z,0.30
2019-02-04T02:33:45.559Z,0.20
2019-02-04T02:34:50.508Z,0.20
2019-02-04T02:35:55.734Z,0.20
2019-02-04T02:37:01.184Z,0.20
2019-02-04T02:38:06.413Z,0.20
2019-02-04T02:39:11.812Z,0.20
2019-02-04T02:40:23.275Z,0.10
2019-02-04T02:41:28.705Z,0.20
2019-02-04T02:42:33.972Z,0.20
2019-02-04T02:43:38.839Z,0.20
2019-02-04T02:44:43.638Z,0.20
2019-02-04T02:45:48.409Z,0.20
2019-02-04T02:46:53.246Z,0.20
2019-02-04T02:47:57.948Z,0.20
2019-02-04T02:49:02.797Z,0.20
2019-02-04T02:50:11.040Z,0.20
2019-02-04T02:51:15.804Z,0.10
2019-02-04T02:52:20.596Z,0.10
2019-02-04T02:53:25.352Z,0.10
2019-02-04T02:54:30.169Z,0.10
2019-02-04T02:55:35.365Z,0.10
2019-02-04T02:56:40.478Z,0.10
2019-02-04T02:57:45.745Z,0.10
2019-02-04T02:58:51.436Z,0.10
2019-02-04T02:59:56.978Z,0.10
2019-02-04T03:01:02.299Z,0.10
2019-02-04T03:02:07.591Z,0.10
2019-02-04T03:03:12.324Z,0.10
2019-02-04T03:04:17.356Z,0.10
2019-02-04T03:05:22.501Z,0.10
2019-02-04T03:06:27.528Z,0.10
2019-02-04T03:07:32.336Z,0.10
2019-02-04T03:08:37.183Z,0.10
2019-02-04T03:09:42.629Z,0.10
2019-02-04T03:10:47.545Z,0.10
2019-02-04T03:11:52.321Z,0.10
2019-02-04T03:12:58.384Z,0.10
2019-02-04T03:14:03.739Z,0.10
2019-02-04T03:15:09.803Z,0.10
2019-02-04T03:16:15.160Z,0.10
2019-02-04T03:17:20.465Z,0.10
2019-02-04T03:18:25.240Z,0.10
2019-02-04T03:19:30.003Z,0.10
2019-02-04T03:20:35.229Z,0.10
2019-02-04T03:21:40.473Z,0.00
2019-02-04T03:22:45.205Z,0.10
2019-02-04T03:23:49.962Z,0.10
2019-02-04T03:24:54.716Z,0.10
2019-02-04T03:25:59.462Z,0.10
2019-02-04T03:27:04.160Z,0.00
2019-02-04T03:28:08.948Z,0.10
2019-02-04T03:29:13.773Z,0.10
2019-02-04T03:30:24.993Z,0.10
2019-02-04T03:31:29.811Z,0.00
2019-02-04T03:32:34.637Z,0.10
2019-02-04T03:33:39.627Z,0.00
2019-02-04T03:34:44.363Z,0.10
2019-02-04T03:35:49.266Z,0.10
2019-02-04T03:36:54.016Z,0.10
2019-02-04T03:37:58.777Z,0.00
2019-02-04T03:39:04.651Z,0.00
2019-02-04T03:40:12.150Z,0.00
2019-02-04T03:41:16.898Z,0.00
2019-02-04T03:42:21.983Z,0.00
2019-02-04T03:43:27.650Z,0.00
2019-02-04T03:44:32.887Z,0.00
2019-02-04T03:45:38.230Z,0.00
2019-02-04T03:46:42.993Z,0.00
2019-02-04T03:47:47.740Z,0.00
2019-02-04T03:48:52.882Z,0.00
2019-02-04T03:49:57.636Z,0.00
2019-02-04T03:51:02.594Z,0.00
2019-02-04T03:52:07.598Z,0.00
2019-02-04T03:53:12.817Z,0.00
2019-02-04T03:54:18.062Z,0.00
2019-02-04T03:55:22.713Z,0.00
2019-02-04T03:56:27.992Z,0.00
2019-02-04T03:57:32.946Z,0.00
2019-02-04T03:58:37.908Z,0.00
2019-02-04T03:59:42.716Z,0.00
2019-02-04T04:00:47.605Z,0.00
2019-02-04T04:01:52.724Z,-0.10
2019-02-04T04:02:57.645Z,-0.10
2019-02-04T04:04:02.656Z,0.00
2019-02-04T04:05:07.552Z,-0.10
2019-02-04T04:06:12.336Z,-0.10
2019-02-04T04:07:17.128Z,-0.10
2019-02-04T04:08:21.922Z,-0.10
2019-02-04T04:09:27.048Z,-0.10
2019-02-04T04:10:31.983Z,-0.10
2019-02-04T04:11:36.733Z,-0.10
2019-02-04T04:12:41.511Z,-0.10
2019-02-04T04:13:46.283Z,-0.10
2019-02-04T04:14:51.178Z,-0.10
2019-02-04T04:15:55.936Z,-0.10
2019-02-04T04:17:00.824Z,-0.10
2019-02-04T04:18:15.594Z,-0.10
2019-02-04T04:19:12.189Z,-0.10
2019-02-04T04:20:17.336Z,-0.10
2019-02-04T04:21:22.168Z,-0.10
2019-02-04T04:22:26.888Z,-0.20
2019-02-04T04:23:31.812Z,-0.20
2019-02-04T04:24:37.322Z,-0.20
2019-02-04T04:25:42.085Z,-0.20
2019-02-04T04:26:46.847Z,-0.20
2019-02-04T04:27:51.612Z,-0.20
2019-02-04T04:28:56.378Z,-0.20
2019-02-04T04:30:01.160Z,-0.30
2019-02-04T04:31:05.971Z,-0.30
2019-02-04T04:32:10.769Z,-0.30
2019-02-04T04:33:15.520Z,-0.30
2019-02-04T04:34:20.309Z,-0.30
2019-02-04T04:35:25.225Z,-0.30
2019-02-04T04:36:29.976Z,-0.30
2019-02-04T04:37:34.740Z,-0.30
2019-02-04T04:38:39.570Z,-0.40
2019-02-04T04:39:44.348Z,-0.40
2019-02-04T04:40:49.100Z,-0.40
2019-02-04T04:41:54.097Z,-0.40
2019-02-04T04:42:59.285Z,-0.40
2019-02-04T04:44:04.204Z,-0.30
2019-02-04T04:45:10.657Z,-0.30
2019-02-04T04:46:15.559Z,-0.40
2019-02-04T04:47:20.528Z,-0.40
2019-02-04T04:48:26.681Z,-0.40
2019-02-04T04:49:31.783Z,-0.40
2019-02-04T04:50:36.992Z,-0.40
2019-02-04T04:51:41.960Z,-0.40
2019-02-04T04:52:47.063Z,-0.50
2019-02-04T04:53:52.200Z,-0.40
2019-02-04T04:54:57.360Z,-0.40
2019-02-04T04:56:02.084Z,-0.50
2019-02-04T04:57:06.854Z,-0.40
2019-02-04T04:58:11.745Z,-0.50
2019-02-04T04:59:16.513Z,-0.50
2019-02-04T05:00:23.544Z,-0.50
2019-02-04T05:01:28.877Z,-0.50
2019-02-04T05:02:34.173Z,-0.50
2019-02-04T05:03:39.344Z,-0.50
2019-02-04T05:04:44.700Z,-0.50
2019-02-04T05:05:49.520Z,-0.50
2019-02-04T05:06:54.393Z,-0.50
2019-02-04T05:07:59.331Z,-0.50
2019-02-04T05:09:05.618Z,-0.50
2019-02-04T05:10:12.775Z,-0.50
2019-02-04T05:11:17.564Z,-0.50
2019-02-04T05:12:22.327Z,-0.60
2019-02-04T05:13:27.068Z,-0.60
2019-02-04T05:14:31.844Z,-0.60
2019-02-04T05:15:36.668Z,-0.60
2019-02-04T05:16:41.792Z,-0.60
2019-02-04T05:17:46.723Z,-0.60
2019-02-04T05:18:51.600Z,-0.60
2019-02-04T05:19:56.444Z,-0.60
2019-02-04T05:21:01.243Z,-0.60
2019-02-04T05:22:06.124Z,-0.60
2019-02-04T05:23:10.869Z,-0.60
2019-02-04T05:24:15.708Z,-0.60
2019-02-04T05:25:20.811Z,-0.60
2019-02-04T05:26:25.548Z,-0.60
2019-02-04T05:27:30.344Z,-0.60
2019-02-04T05:28:35.216Z,-0.60
2019-02-04T05:29:40.000Z,-0.60
2019-02-04T05:30:44.800Z,-0.60
2019-02-04T05:31:49.664Z,-0.60
2019-02-04T05:32:54.489Z,-0.60
2019-02-04T05:33:59.328Z,-0.60
2019-02-04T05:35:04.329Z,-0.70
2019-02-04T05:36:09.216Z,-0.70
2019-02-04T05:37:14.004Z,-0.70
2019-02-04T05:38:18.746Z,-0.70
2019-02-04T05:39:23.516Z,-0.70
2019-02-04T05:40:28.315Z,-0.80
2019-02-04T05:41:33.064Z,-0.80
2019-02-04T05:42:37.892Z,-0.80
2019-02-04T05:43:43.023Z,-0.80
2019-02-04T05:44:48.161Z,-0.80
2019-02-04T05:45:52.972Z,-0.80
2019-02-04T05:46:57.692Z,-0.80
2019-02-04T05:48:02.497Z,-0.70
2019-02-04T05:49:07.306Z,-0.70
2019-02-04T05:50:13.983Z,-0.80
2019-02-04T05:51:18.760Z,-0.70
2019-02-04T05:52:23.539Z,-0.70
2019-02-04T05:53:28.265Z,-0.70
2019-02-04T05:54:33.044Z,-0.70
2019-02-04T05:55:37.863Z,-0.70
2019-02-04T05:56:42.639Z,-0.70
2019-02-04T05:57:47.506Z,-0.70
2019-02-04T05:58:52.272Z,-0.80
2019-02-04T05:59:57.052Z,-0.80
2019-02-04T06:01:02.092Z,-0.80
2019-02-04T06:02:09.361Z,-0.80
2019-02-04T06:03:13.478Z,-0.80
2019-02-04T06:04:18.552Z,-0.80
2019-02-04T06:05:23.467Z,-0.80
2019-02-04T06:06:28.302Z,-0.80
2019-02-04T06:07:33.297Z,-0.80
2019-02-04T06:08:38.348Z,-0.80
2019-02-04T06:09:43.251Z,-0.80
2019-02-04T06:10:48.139Z,-0.80
2019-02-04T06:11:53.403Z,-0.80
2019-02-04T06:12:58.236Z,-0.80
2019-02-04T06:14:03.055Z,-0.80
2019-02-04T06:15:09.227Z,-0.70
2019-02-04T06:16:13.998Z,-0.80
2019-02-04T06:17:18.776Z,-0.80
2019-02-04T06:18:23.715Z,-0.70
2019-02-04T06:19:28.484Z,-0.80
2019-02-04T06:20:33.246Z,-0.80
2019-02-04T06:21:38.029Z,-0.80
2019-02-04T06:22:42.888Z,-0.80
2019-02-04T06:23:48.129Z,-0.80
2019-02-04T06:24:53.073Z,-0.80
2019-02-04T06:25:57.919Z,-0.80
2019-02-04T06:27:02.684Z,-0.80
2019-02-04T06:28:07.939Z,-0.80
2019-02-04T06:29:12.727Z,-0.80
2019-02-04T06:30:17.733Z,-0.90
2019-02-04T06:31:22.528Z,-0.90
2019-02-04T06:32:27.305Z,-0.90
2019-02-04T06:33:32.053Z,-0.90
2019-02-04T06:34:36.796Z,-0.80
2019-02-04T06:35:41.643Z,-0.90
2019-02-04T06:36:46.464Z,-0.90
2019-02-04T06:37:51.236Z,-0.90
2019-02-04T06:38:56.041Z,-0.90
2019-02-04T06:40:00.817Z,-0.80
2019-02-04T06:41:05.751Z,-0.90
2019-02-04T06:42:10.557Z,-0.90
2019-02-04T06:43:15.768Z,-0.90
2019-02-04T06:44:20.596Z,-0.80
2019-02-04T06:45:25.610Z,-0.90
2019-02-04T06:46:30.520Z,-0.90
2019-02-04T06:47:35.461Z,-0.90
2019-02-04T06:48:40.375Z,-0.90
2019-02-04T06:49:45.248Z,-0.90
2019-02-04T06:50:50.983Z,-0.90
2019-02-04T06:51:56.043Z,-0.90
2019-02-04T06:53:00.933Z,-0.90
2019-02-04T06:54:06.052Z,-0.90
2019-02-04T06:55:14.127Z,-0.90
2019-02-04T06:56:19.009Z,-0.90
2019-02-04T06:57:23.889Z,-0.90
2019-02-04T06:58:28.760Z,-0.90
2019-02-04T06:59:33.802Z,-0.90
2019-02-04T07:00:38.750Z,-0.90
2019-02-04T07:01:43.726Z,-0.90
2019-02-04T07:02:48.896Z,-0.90
2019-02-04T07:03:54.248Z,-0.90
2019-02-04T07:04:59.243Z,-0.90
2019-02-04T07:06:04.476Z,-0.90
2019-02-04T07:07:09.428Z,-0.90
2019-02-04T07:08:14.321Z,-0.80
2019-02-04T07:09:19.319Z,-0.80
2019-02-04T07:10:25.352Z,-0.80
2019-02-04T07:11:30.192Z,-0.80
2019-02-04T07:12:35.156Z,-0.80
2019-02-04T07:13:42.691Z,-0.80
2019-02-04T07:14:46.868Z,-0.80
2019-02-04T07:15:51.924Z,-0.80
2019-02-04T07:16:56.928Z,-0.80
2019-02-04T07:18:02.253Z,-0.80
2019-02-04T07:19:08.064Z,-0.70
2019-02-04T07:20:19.656Z,-0.80
2019-02-04T07:21:24.664Z,-0.70
2019-02-04T07:22:29.673Z,-0.70
2019-02-04T07:23:34.595Z,-0.80
2019-02-04T07:24:42.927Z,-0.70
2019-02-04T07:25:46.024Z,-0.70
2019-02-04T07:26:51.257Z,-0.70
2019-02-04T07:27:56.263Z,-0.70
2019-02-04T07:29:01.278Z,-0.70
2019-02-04T07:30:09.596Z,-0.70
2019-02-04T07:31:14.875Z,-0.70
2019-02-04T07:32:19.962Z,-0.70
2019-02-04T07:33:25.484Z,-0.70
2019-02-04T07:34:30.453Z,-0.70
2019-02-04T07:35:35.400Z,-0.70
2019-02-04T07:36:40.273Z,-0.70
2019-02-04T07:37:48.342Z,-0.70
2019-02-04T07:38:53.429Z,-0.70
2019-02-04T07:39:58.579Z,-0.70
2019-02-04T07:41:03.507Z,-0.70
2019-02-04T07:42:10.749Z,-0.60
2019-02-04T07:43:15.629Z,-0.60
2019-02-04T07:44:20.526Z,-0.60
2019-02-04T07:45:25.579Z,-0.60
2019-02-04T07:46:30.574Z,-0.60
2019-02-04T07:47:35.799Z,-0.50
2019-02-04T07:48:41.084Z,-0.50
2019-02-04T07:49:45.961Z,-0.40
2019-02-04T07:50:50.921Z,-0.40
2019-02-04T07:51:55.867Z,-0.40
2019-02-04T07:53:01.012Z,-0.50
2019-02-04T07:54:06.263Z,-0.50
2019-02-04T07:55:11.855Z,-0.50
2019-02-04T07:56:16.743Z,-0.50
2019-02-04T07:57:21.567Z,-0.50
2019-02-04T07:58:26.336Z,-0.40
2019-02-04T07:59:31.190Z,-0.50
2019-02-04T08:00:36.285Z,-0.40
2019-02-04T08:01:41.272Z,-0.40
2019-02-04T08:02:46.320Z,-0.40
2019-02-04T08:03:51.383Z,-0.40
2019-02-04T08:04:56.205Z,-0.30
2019-02-04T08:06:01.132Z,-0.20
2019-02-04T08:07:06.046Z,-0.30
2019-02-04T08:08:11.513Z,-0.30
2019-02-04T08:09:16.422Z,-0.30
2019-02-04T08:10:21.480Z,-0.30
2019-02-04T08:11:26.272Z,-0.40
2019-02-04T08:12:31.145Z,-0.40
2019-02-04T08:13:35.927Z,-0.30
2019-02-04T08:14:40.777Z,-0.30
2019-02-04T08:15:45.649Z,-0.30
2019-02-04T08:16:50.661Z,-0.30
2019-02-04T08:17:56.368Z,-0.30
2019-02-04T08:19:01.231Z,-0.20
2019-02-04T08:20:07.054Z,-0.20
2019-02-04T08:21:12.128Z,-0.10
2019-02-04T08:22:17.085Z,0.00
2019-02-04T08:23:22.128Z,0.00
2019-02-04T08:24:27.023Z,0.00
2019-02-04T08:25:32.012Z,-0.10
2019-02-04T08:26:36.892Z,0.00
2019-02-04T08:27:42.345Z,0.00
2019-02-04T08:28:47.707Z,0.00
2019-02-04T08:29:52.530Z,0.10
2019-02-04T08:30:58.165Z,0.10
2019-02-04T08:32:03.886Z,0.10
2019-02-04T08:33:09.604Z,0.10
2019-02-04T08:34:16.206Z,0.00
2019-02-04T08:35:21.822Z,0.00
2019-02-04T08:36:27.281Z,0.00
2019-02-04T08:37:32.250Z,0.10
2019-02-04T08:38:37.911Z,0.20
2019-02-04T08:39:43.056Z,0.20
2019-02-04T08:40:48.401Z,0.20
2019-02-04T08:41:53.201Z,0.20
2019-02-04T08:42:58.063Z,0.10
2019-02-04T08:44:03.023Z,0.10
2019-02-04T08:45:08.364Z,0.20
2019-02-04T08:46:13.544Z,0.20
2019-02-04T08:47:22.829Z,0.20
2019-02-04T08:48:25.548Z,0.20
2019-02-04T08:49:30.508Z,0.30
2019-02-04T08:50:35.539Z,0.20
2019-02-04T08:51:40.608Z,0.20
2019-02-04T08:52:45.876Z,0.20
2019-02-04T08:53:50.967Z,0.00
2019-02-04T08:54:55.995Z,0.10
2019-02-04T08:56:01.095Z,0.10
2019-02-04T08:57:06.164Z,0.10
2019-02-04T08:58:11.366Z,0.10
2019-02-04T08:59:16.325Z,0.10
2019-02-04T09:00:22.083Z,0.00
2019-02-04T09:01:29.867Z,0.00
2019-02-04T09:02:35.472Z,0.00
2019-02-04T09:03:40.591Z,0.00
2019-02-04T09:04:45.765Z,0.00
2019-02-04T09:05:50.927Z,0.00
2019-02-04T09:06:56.335Z,-0.10
2019-02-04T09:08:02.491Z,-0.10
2019-02-04T09:09:10.717Z,-0.10
2019-02-04T09:10:22.253Z,-0.10
2019-02-04T09:11:27.972Z,0.00
2019-02-04T09:12:33.035Z,0.00
2019-02-04T09:13:37.975Z,0.20
2019-02-04T09:14:43.106Z,0.10
2019-02-04T09:15:48.356Z,0.10
2019-02-04T09:16:53.225Z,0.10
2019-02-04T09:17:58.758Z,0.10
2019-02-04T09:19:04.172Z,0.10
2019-02-04T09:20:10.791Z,0.10
2019-02-04T09:21:15.853Z,0.10
2019-02-04T09:22:20.884Z,0.00
2019-02-04T09:23:25.824Z,0.00
2019-02-04T09:24:30.769Z,0.00
2019-02-04T09:25:36.398Z,0.10
2019-02-04T09:26:43.480Z,0.10
2019-02-04T09:27:51.637Z,0.10
2019-02-04T09:28:57.197Z,0.10
2019-02-04T09:30:02.346Z,0.20
2019-02-04T09:31:07.358Z,0.20
2019-02-04T09:32:12.757Z,0.30
2019-02-04T09:33:17.872Z,0.30
2019-02-04T09:34:23.000Z,0.40
2019-02-04T09:35:27.986Z,0.50
2019-02-04T09:36:35.184Z,0.60
2019-02-04T09:37:40.405Z,0.60
2019-02-04T09:38:45.297Z,0.60
2019-02-04T09:39:50.241Z,0.70
2019-02-04T09:40:55.085Z,0.90
2019-02-04T09:41:59.998Z,0.80
2019-02-04T09:43:05.166Z,0.80
2019-02-04T09:44:10.237Z,0.70
2019-02-04T09:45:16.455Z,0.70
2019-02-04T09:46:21.519Z,0.70
2019-02-04T09:47:26.505Z,0.70
2019-02-04T09:48:31.591Z,0.80
2019-02-04T09:49:36.545Z,0.80
2019-02-04T09:50:41.721Z,0.80
2019-02-04T09:51:47.029Z,0.80
2019-02-04T09:52:52.536Z,0.90
2019-02-04T09:53:57.675Z,0.90
2019-02-04T09:55:02.537Z,0.90
2019-02-04T09:56:07.532Z,0.90
2019-02-04T09:57:12.501Z,0.90
2019-02-04T09:58:17.507Z,1.00
2019-02-04T09:59:22.505Z,1.00
2019-02-04T10:00:29.429Z,1.00
2019-02-04T10:01:34.340Z,1.10
2019-02-04T10:02:39.312Z,1.10
2019-02-04T10:03:44.673Z,1.10
2019-02-04T10:04:49.593Z,1.10
2019-02-04T10:05:54.551Z,1.00
2019-02-04T10:06:59.513Z,1.10
2019-02-04T10:08:05.121Z,1.10
2019-02-04T10:09:11.013Z,1.20
2019-02-04T10:10:17.856Z,1.20
2019-02-04T10:11:22.766Z,1.30
2019-02-04T10:12:27.701Z,1.20
2019-02-04T10:13:33.002Z,1.30
2019-02-04T10:14:38.433Z,1.30
2019-02-04T10:15:45.714Z,1.40
2019-02-04T10:16:50.090Z,1.60
2019-02-04T10:17:55.038Z,1.70
2019-02-04T10:18:59.948Z,1.80
2019-02-04T10:20:05.929Z,1.90
2019-02-04T10:21:10.694Z,2.00
2019-02-04T10:22:15.462Z,2.00
2019-02-04T10:23:20.618Z,2.10
2019-02-04T10:24:25.614Z,2.10
2019-02-04T10:25:32.831Z,2.10
2019-02-04T10:26:38.326Z,2.00
2019-02-04T10:27:43.917Z,2.00
2019-02-04T10:28:49.610Z,2.00
2019-02-04T10:29:55.354Z,2.00
2019-02-04T10:31:00.934Z,1.90
2019-02-04T10:32:06.134Z,1.80
2019-02-04T10:33:11.776Z,1.70
2019-02-04T10:34:17.617Z,1.60
2019-02-04T10:35:23.862Z,1.60
2019-02-04T10:36:29.605Z,1.70
2019-02-04T10:37:35.401Z,1.70
2019-02-04T10:38:41.344Z,1.80
2019-02-04T10:39:46.450Z,1.80
2019-02-04T10:40:51.620Z,1.80
2019-02-04T10:41:56.780Z,1.80
2019-02-04T10:43:01.808Z,1.80
2019-02-04T10:44:07.078Z,1.70
2019-02-04T10:45:13.363Z,1.70
2019-02-04T10:46:18.917Z,1.70
2019-02-04T10:47:24.072Z,1.60
2019-02-04T10:48:29.182Z,1.50
2019-02-04T10:49:36.170Z,1.50
2019-02-04T10:50:46.181Z,1.50
2019-02-04T10:51:49.166Z,1.40
2019-02-04T10:52:54.681Z,1.50
2019-02-04T10:54:00.356Z,1.40
2019-02-04T10:55:07.066Z,1.40
2019-02-04T10:56:12.710Z,1.30
2019-02-04T10:57:17.846Z,1.40
2019-02-04T10:58:22.821Z,1.20
2019-02-04T10:59:27.785Z,1.30
2019-02-04T11:00:35.115Z,1.30
2019-02-04T11:01:41.134Z,1.40
2019-02-04T11:02:46.172Z,1.40
2019-02-04T11:03:51.282Z,1.50
2019-02-04T11:04:56.619Z,1.60
2019-02-04T11:06:01.851Z,1.50
2019-02-04T11:07:07.044Z,1.60
2019-02-04T11:08:13.081Z,1.60
2019-02-04T11:09:18.039Z,1.70
2019-02-04T11:10:27.281Z,1.60
2019-02-04T11:11:33.234Z,1.60
2019-02-04T11:12:41.035Z,1.60
2019-02-04T11:13:46.304Z,1.50
2019-02-04T11:14:51.286Z,1.50
2019-02-04T11:15:56.492Z,1.50
2019-02-04T11:17:01.449Z,1.40
2019-02-04T11:18:06.882Z,1.40
2019-02-04T11:19:11.905Z,1.40
2019-02-04T11:20:19.894Z,1.50
2019-02-04T11:21:24.745Z,1.60
2019-02-04T11:22:29.583Z,1.70
2019-02-04T11:23:34.421Z,1.90
2019-02-04T11:24:39.453Z,2.10
2019-02-04T11:25:44.815Z,2.20
2019-02-04T11:26:49.789Z,2.50
2019-02-04T11:27:54.923Z,2.60
2019-02-04T11:28:59.789Z,2.60
2019-02-04T11:30:06.163Z,2.60
2019-02-04T11:31:12.336Z,2.60
2019-02-04T11:32:17.327Z,2.70
2019-02-04T11:33:22.246Z,2.70
2019-02-04T11:34:27.142Z,2.60
2019-02-04T11:35:32.105Z,2.30
2019-02-04T11:36:37.239Z,2.20
2019-02-04T11:37:42.413Z,2.10
2019-02-04T11:38:47.379Z,2.00
2019-02-04T11:39:52.324Z,1.80
2019-02-04T11:40:57.526Z,1.70
2019-02-04T11:42:02.402Z,1.70
2019-02-04T11:43:09.255Z,1.60
2019-02-04T11:44:14.179Z,1.60
2019-02-04T11:45:19.204Z,1.60
2019-02-04T11:46:24.306Z,1.60
2019-02-04T11:47:32.711Z,1.60
2019-02-04T11:48:37.920Z,1.70
2019-02-04T11:49:42.696Z,1.70
2019-02-04T11:50:47.621Z,1.60
2019-02-04T11:51:52.432Z,1.80
2019-02-04T11:52:57.171Z,1.80
2019-02-04T11:54:02.030Z,1.80
2019-02-04T11:55:07.781Z,1.80
2019-02-04T11:56:12.661Z,1.80
2019-02-04T11:57:17.440Z,1.90
2019-02-04T11:58:22.322Z,1.90
2019-02-04T11:59:27.380Z,2.00
2019-02-04T12:00:32.873Z,2.10
2019-02-04T12:01:37.766Z,2.20
2019-02-04T12:02:42.840Z,2.20
2019-02-04T12:03:47.863Z,2.20
2019-02-04T12:04:53.130Z,2.20
2019-02-04T12:05:58.153Z,2.20
2019-02-04T12:07:03.472Z,2.10
2019-02-04T12:08:09.135Z,2.10
2019-02-04T12:09:14.081Z,2.00
2019-02-04T12:10:24.269Z,2.00
2019-02-04T12:11:29.252Z,2.00
2019-02-04T12:12:34.208Z,2.00
2019-02-04T12:13:39.302Z,2.00
2019-02-04T12:14:44.221Z,2.00
2019-02-04T12:15:49.240Z,1.90
2019-02-04T12:16:54.224Z,1.90
2019-02-04T12:17:59.179Z,2.00
2019-02-04T12:19:04.129Z,2.10
2019-02-04T12:20:10.805Z,2.10
2019-02-04T12:21:21.517Z,2.10
2019-02-04T12:22:22.393Z,2.20
2019-02-04T12:23:27.397Z,2.30
2019-02-04T12:24:32.326Z,2.40
2019-02-04T12:25:37.330Z,2.40
2019-02-04T12:26:42.246Z,2.40
2019-02-04T12:27:47.166Z,2.40
2019-02-04T12:28:52.776Z,2.50
2019-02-04T12:29:58.231Z,2.60
2019-02-04T12:31:03.678Z,2.50
2019-02-04T12:32:08.936Z,2.60
2019-02-04T12:33:14.761Z,2.60
2019-02-04T12:34:19.776Z,2.50
2019-02-04T12:35:24.856Z,2.40
2019-02-04T12:36:29.896Z,2.40
2019-02-04T12:37:34.827Z,2.30
2019-02-04T12:38:39.686Z,2.30
2019-02-04T12:39:44.537Z,2.40
2019-02-04T12:40:49.512Z,2.30
2019-02-04T12:41:54.580Z,2.40
2019-02-04T12:42:59.522Z,2.50
2019-02-04T12:44:04.599Z,2.50
2019-02-04T12:45:12.334Z,2.50
2019-02-04T12:46:17.422Z,2.50
2019-02-04T12:47:22.532Z,2.50
2019-02-04T12:48:27.545Z,2.50
2019-02-04T12:49:33.073Z,2.60
2019-02-04T12:50:38.420Z,2.50
2019-02-04T12:51:43.210Z,2.50
2019-02-04T12:52:47.968Z,2.60
2019-02-04T12:53:52.856Z,2.70
2019-02-04T12:54:57.702Z,2.70
2019-02-04T12:56:02.682Z,2.70
2019-02-04T12:57:07.518Z,2.80
2019-02-04T12:58:12.555Z,2.70
2019-02-04T12:59:17.527Z,2.80
2019-02-04T13:00:26.504Z,2.80
2019-02-04T13:01:31.405Z,2.80
2019-02-04T13:02:36.517Z,2.70
2019-02-04T13:03:41.690Z,2.60
2019-02-04T13:04:46.727Z,2.70
2019-02-04T13:05:53.773Z,2.60
2019-02-04T13:06:58.636Z,2.50
2019-02-04T13:08:03.627Z,2.40
2019-02-04T13:09:10.602Z,2.20
2019-02-04T13:10:16.916Z,2.20
2019-02-04T13:11:21.768Z,2.20
2019-02-04T13:12:26.993Z,2.20
2019-02-04T13:13:32.390Z,2.20
2019-02-04T13:14:37.356Z,2.20
2019-02-04T13:15:42.194Z,2.10
2019-02-04T13:16:47.009Z,2.10
2019-02-04T13:17:52.319Z,2.20
2019-02-04T13:18:57.292Z,2.20
2019-02-04T13:20:02.289Z,2.20
2019-02-04T13:21:07.539Z,2.20
2019-02-04T13:22:12.914Z,2.20
2019-02-04T13:23:17.773Z,2.20
2019-02-04T13:24:22.808Z,2.20
2019-02-04T13:25:28.565Z,2.20
2019-02-04T13:26:33.557Z,2.30
2019-02-04T13:27:38.479Z,2.30
2019-02-04T13:28:43.432Z,2.20
2019-02-04T13:29:48.265Z,2.10
2019-02-04T13:30:53.192Z,2.00
2019-02-04T13:31:58.268Z,1.90
2019-02-04T13:33:03.852Z,1.80
2019-02-04T13:34:08.884Z,1.80
2019-02-04T13:35:13.967Z,1.80
2019-02-04T13:36:18.927Z,1.80
2019-02-04T13:37:23.976Z,1.80
2019-02-04T13:38:28.804Z,1.80
2019-02-04T13:39:33.747Z,1.80
2019-02-04T13:40:39.097Z,1.90
2019-02-04T13:41:44.278Z,2.00
2019-02-04T13:42:49.535Z,2.10
2019-02-04T13:43:54.527Z,2.10
2019-02-04T13:44:59.554Z,2.20
2019-02-04T13:46:05.973Z,2.30
2019-02-04T13:47:11.157Z,2.30
2019-02-04T13:48:16.319Z,2.40
2019-02-04T13:49:21.405Z,2.40
2019-02-04T13:50:26.605Z,2.50
2019-02-04T13:51:31.654Z,2.40
2019-02-04T13:52:36.854Z,2.40
2019-02-04T13:53:42.281Z,2.60
2019-02-04T13:54:47.508Z,2.60
2019-02-04T13:55:52.757Z,2.60
2019-02-04T13:56:57.767Z,2.60
2019-02-04T13:58:02.923Z,2.60
2019-02-04T13:59:08.078Z,2.60
2019-02-04T14:00:14.362Z,2.50
2019-02-04T14:01:19.201Z,2.50
2019-02-04T14:02:24.190Z,2.40
2019-02-04T14:03:29.092Z,2.50
2019-02-04T14:04:34.008Z,2.50
2019-02-04T14:05:39.033Z,2.50
2019-02-04T14:06:43.845Z,2.50
2019-02-04T14:07:50.145Z,2.50
2019-02-04T14:08:55.393Z,2.40
2019-02-04T14:10:00.445Z,2.30
2019-02-04T14:11:05.472Z,2.20
2019-02-04T14:12:10.501Z,2.20
2019-02-04T14:13:15.435Z,2.30
2019-02-04T14:14:20.329Z,2.20
2019-02-04T14:15:26.136Z,2.20
2019-02-04T14:16:32.664Z,2.20
2019-02-04T14:17:37.597Z,2.10
2019-02-04T14:18:42.395Z,2.10
2019-02-04T14:19:47.167Z,2.10
2019-02-04T14:20:52.139Z,2.10
2019-02-04T14:22:08.677Z,2.00
2019-02-04T14:23:03.629Z,2.00
2019-02-04T14:24:08.716Z,2.10
2019-02-04T14:25:14.108Z,2.10
2019-02-04T14:26:19.901Z,2.10
2019-02-04T14:27:24.821Z,2.10
2019-02-04T14:28:31.532Z,2.10
2019-02-04T14:29:37.276Z,2.10
2019-02-04T14:30:42.918Z,2.10
2019-02-04T14:31:47.899Z,2.10
2019-02-04T14:32:53.754Z,2.20
2019-02-04T14:33:59.230Z,2.20
2019-02-04T14:35:05.390Z,2.10
2019-02-04T14:36:11.030Z,2.10
2019-02-04T14:37:15.983Z,2.10
2019-02-04T14:38:26.493Z,2.00
2019-02-04T14:39:31.556Z,1.90
2019-02-04T14:40:37.305Z,1.90
2019-02-04T14:41:44.294Z,1.90
2019-02-04T14:42:52.227Z,1.90
2019-02-04T14:44:09.328Z,1.90
2019-02-04T14:45:36.976Z,1.90
2019-02-04T14:47:06.460Z,1.70
2019-02-04T14:48:42.024Z,1.70
2019-02-04T14:50:28.674Z,1.70
2019-02-04T14:52:20.964Z,1.60
2019-02-04T14:53:59.185Z,1.60
2019-02-04T14:55:23.823Z,1.60
2019-02-04T14:56:47.161Z,1.60
2019-02-04T14:58:39.013Z,1.50
2019-02-04T15:00:12.313Z,1.40
2019-02-04T15:01:53.552Z,1.40
2019-02-04T15:03:31.405Z,1.40
2019-02-04T15:05:29.523Z,1.30
2019-02-04T15:07:03.404Z,1.40
2019-02-04T15:08:58.745Z,1.40
2019-02-04T15:10:32.932Z,1.30
2019-02-04T15:12:21.063Z,1.20
2019-02-04T15:14:10.783Z,1.20
2019-02-04T15:15:58.963Z,1.30
2019-02-04T15:17:29.311Z,1.20
2019-02-04T15:19:11.207Z,1.10
2019-02-04T15:21:02.083Z,1.00
2019-02-04T15:22:47.030Z,0.90
2019-02-04T15:24:30.092Z,0.90
2019-02-04T15:26:04.587Z,0.80
2019-02-04T15:27:40.506Z,0.70
2019-02-04T15:29:19.111Z,0.60
2019-02-04T15:30:49.686Z,0.60
2019-02-04T15:32:32.654Z,0.60
2019-02-04T15:33:48.693Z,0.60
2019-02-04T15:35:20.167Z,0.50
2019-02-04T15:37:16.343Z,0.50
2019-02-04T15:39:06.860Z,0.40
2019-02-04T15:40:48.221Z,0.40
2019-02-04T15:42:31.850Z,0.30
2019-02-04T15:44:17.824Z,0.20
2019-02-04T15:45:53.802Z,0.10
2019-02-04T15:47:09.024Z,0.00